Time;durP1;ratioP1;P1;durP2;ratioP2;P2;SDS_P1;SDS_P2;PMS_P1;PMS_P2;Temp;Humidity;BMP_temperature;BMP_pressure;BME280_temperature;BME280_humidity;BME280_pressure;Samples;Min_cycle;Max_cycle;Signal;HPM_P1;HPM_P2
2023/12/22 00:02:13;;;;;;;12.25;5.90;;;21.50;96.10;;;;;;5086917;28;20126;-60
2023/12/22 00:04:39;;;;;;;22.50;8.80;;;21.50;96.10;;;;;;5087805;28;20100;-62
2023/12/22 00:07:06;;;;;;;16.92;8.15;;;21.40;96.30;;;;;;5088722;28;20938;-59
2023/12/22 00:09:32;;;;;;;17.02;5.80;;;21.40;96.40;;;;;;5087036;28;20543;-61
2023/12/22 00:11:59;;;;;;;20.20;5.80;;;21.40;96.40;;;;;;5087337;28;20081;-61
2023/12/22 00:14:25;;;;;;;16.30;6.25;;;21.40;96.40;;;;;;5086961;28;20134;-62
2023/12/22 00:16:52;;;;;;;19.50;6.82;;;21.30;96.50;;;;;;5086523;28;20080;-62
2023/12/22 00:19:18;;;;;;;22.77;5.70;;;21.20;96.70;;;;;;5086637;28;20126;-61
2023/12/22 00:21:45;;;;;;;18.80;3.95;;;21.20;96.80;;;;;;5086866;28;20413;-61
2023/12/22 00:24:11;;;;;;;12.50;2.72;;;21.10;96.80;;;;;;5084941;28;20577;-61
2023/12/22 00:26:38;;;;;;;9.60;3.35;;;21.10;96.90;;;;;;5086338;28;20095;-60
2023/12/22 00:29:04;;;;;;;12.02;3.25;;;21.10;97.00;;;;;;5087747;28;20073;-61
2023/12/22 00:31:31;;;;;;;27.42;3.58;;;21.00;97.20;;;;;;5086685;28;20079;-59
2023/12/22 00:33:57;;;;;;;27.38;4.10;;;21.00;97.30;;;;;;5086225;28;20453;-59
2023/12/22 00:36:24;;;;;;;41.80;6.03;;;21.00;97.60;;;;;;5084109;28;20189;-59
2023/12/22 00:38:51;;;;;;;17.65;4.82;;;20.90;97.80;;;;;;5087176;28;20553;-61
2023/12/22 00:41:17;;;;;;;17.05;4.10;;;20.80;98.00;;;;;;5086449;28;20630;-61
2023/12/22 00:43:44;;;;;;;14.30;4.57;;;20.80;98.20;;;;;;5088126;28;20076;-60
2023/12/22 00:46:10;;;;;;;21.17;4.68;;;20.80;98.40;;;;;;5087703;28;20452;-61
2023/12/22 00:48:37;;;;;;;14.98;4.07;;;20.70;98.60;;;;;;5087579;28;20526;-60
2023/12/22 00:51:03;;;;;;;24.70;4.53;;;20.70;98.90;;;;;;5086110;28;20089;-60
2023/12/22 00:53:30;;;;;;;19.92;5.38;;;20.60;99.10;;;;;;5087913;28;20083;-61
2023/12/22 00:55:56;;;;;;;15.88;6.28;;;20.60;99.20;;;;;;5087496;28;20085;-60
2023/12/22 00:58:23;;;;;;;22.60;6.45;;;20.50;99.70;;;;;;5086305;28;20372;-58
2023/12/22 01:00:49;;;;;;;21.00;6.65;;;20.50;99.50;;;;;;5084813;28;20073;-59
2023/12/22 01:03:16;;;;;;;18.15;6.13;;;20.40;99.70;;;;;;5085760;28;20507;-61
2023/12/22 01:05:42;;;;;;;12.45;5.97;;;20.30;99.90;;;;;;5086719;28;20187;-61
2023/12/22 01:08:09;;;;;;;25.27;7.07;;;20.20;99.90;;;;;;5085629;28;20079;-60
2023/12/22 01:10:35;;;;;;;19.33;8.48;;;20.10;99.90;;;;;;5086569;28;20072;-59
2023/12/22 01:13:02;;;;;;;21.80;8.60;;;20.10;99.90;;;;;;5084103;28;20073;-62
2023/12/22 01:15:28;;;;;;;35.00;9.57;;;20.00;99.90;;;;;;5086143;28;20087;-60
2023/12/22 01:17:55;;;;;;;42.85;11.35;;;19.80;99.90;;;;;;5086170;28;20527;-60
2023/12/22 01:20:21;;;;;;;46.17;13.95;;;19.70;99.90;;;;;;5087164;28;20072;-60
2023/12/22 01:22:47;;;;;;;48.58;14.30;;;19.60;99.90;;;;;;5085405;28;20073;-59
2023/12/22 01:25:14;;;;;;;46.97;14.90;;;19.60;99.90;;;;;;5086619;28;20203;-60
2023/12/22 01:27:40;;;;;;;30.50;13.88;;;19.50;99.90;;;;;;5087867;28;20614;-59
2023/12/22 01:30:07;;;;;;;43.67;15.32;;;19.40;99.90;;;;;;5086248;28;20077;-60
2023/12/22 01:32:36;;;;;;;33.53;14.07;;;19.30;99.90;;;;;;5086986;28;20077;-59
2023/12/22 01:35:09;;;;;;;41.97;13.68;;;19.30;99.90;;;;;;5085758;28;20457;-60
2023/12/22 01:37:36;;;;;;;40.95;14.27;;;19.10;99.90;;;;;;5085318;28;20083;-60
2023/12/22 01:40:03;;;;;;;31.88;13.60;;;19.10;99.90;;;;;;5086068;28;20086;-60
2023/12/22 01:42:30;;;;;;;26.05;12.88;;;19.00;99.90;;;;;;5085508;28;20072;-61
2023/12/22 01:44:56;;;;;;;44.58;14.07;;;19.00;99.90;;;;;;5086625;28;20132;-61
2023/12/22 01:47:23;;;;;;;46.45;13.50;;;18.90;99.90;;;;;;5086835;28;20079;-61
2023/12/22 01:49:49;;;;;;;48.55;13.98;;;18.90;99.90;;;;;;5085898;28;20081;-61
2023/12/22 01:52:17;;;;;;;48.47;14.18;;;18.80;99.90;;;;;;5086162;28;20464;-61
2023/12/22 01:54:44;;;;;;;47.88;12.75;;;18.80;99.90;;;;;;5086039;28;20118;-61
2023/12/22 01:57:13;;;;;;;40.15;13.57;;;18.80;99.90;;;;;;5085839;28;20072;-62
2023/12/22 01:59:40;;;;;;;44.88;13.77;;;18.70;99.90;;;;;;5086393;28;20102;-62
2023/12/22 02:02:07;;;;;;;50.05;13.18;;;18.60;99.90;;;;;;5086737;28;20079;-62
2023/12/22 02:04:34;;;;;;;38.55;13.05;;;18.60;99.90;;;;;;5086136;28;20572;-61
2023/12/22 02:07:02;;;;;;;50.10;15.02;;;18.50;99.90;;;;;;5085336;28;20076;-59
2023/12/22 02:09:29;;;;;;;41.25;14.80;;;18.40;99.90;;;;;;5086321;28;20103;-59
2023/12/22 02:11:55;;;;;;;43.05;14.57;;;18.40;99.90;;;;;;5086879;28;20073;-65
2023/12/22 02:14:22;;;;;;;42.72;14.18;;;18.40;99.90;;;;;;5090690;28;20479;-59
2023/12/22 02:17:02;;;;;;;54.33;14.77;;;18.30;99.90;;;;;;5090799;28;20081;-60
2023/12/22 02:19:46;;;;;;;62.72;16.38;;;18.20;99.90;;;;;;5090152;28;20073;-60
2023/12/22 02:22:13;;;;;;;53.13;14.70;;;18.30;99.90;;;;;;5087764;28;20155;-59
2023/12/22 02:24:41;;;;;;;43.03;13.63;;;18.20;99.90;;;;;;5089468;28;20117;-62
2023/12/22 02:27:33;;;;;;;48.63;15.55;;;18.20;99.90;;;;;;5085776;28;20118;-62
2023/12/22 02:30:25;;;;;;;51.00;15.07;;;18.20;99.90;;;;;;5087981;28;20080;-59
2023/12/22 02:32:55;;;;;;;37.63;14.90;;;18.10;99.90;;;;;;5089682;28;20276;-60
2023/12/22 02:35:26;;;;;;;39.65;15.07;;;18.10;99.90;;;;;;5083568;28;20077;-62
2023/12/22 02:37:54;;;;;;;48.55;15.38;;;18.10;99.90;;;;;;5089552;28;20072;-59
2023/12/22 02:40:21;;;;;;;39.58;16.75;;;18.00;99.90;;;;;;5089228;28;20159;-59
2023/12/22 02:42:48;;;;;;;50.88;15.77;;;18.00;99.90;;;;;;5087633;28;20081;-59
2023/12/22 02:45:17;;;;;;;42.97;17.08;;;18.00;99.90;;;;;;5095629;28;20513;-58
2023/12/22 02:47:44;;;;;;;41.58;17.70;;;18.00;99.90;;;;;;5091559;28;20072;-58
2023/12/22 02:50:13;;;;;;;39.35;17.90;;;18.00;99.90;;;;;;5099141;27;20091;-59
2023/12/22 02:52:40;;;;;;;45.00;17.38;;;17.90;99.90;;;;;;5088485;28;20080;-59
2023/12/22 02:55:07;;;;;;;42.80;16.45;;;17.90;99.90;;;;;;5085715;28;20073;-58
2023/12/22 02:57:34;;;;;;;34.80;15.27;;;17.90;99.90;;;;;;5090143;28;20138;-60
2023/12/22 03:00:00;;;;;;;38.78;16.17;;;17.90;99.90;;;;;;5089190;28;20069;-59
2023/12/22 03:02:27;;;;;;;37.03;15.93;;;17.80;99.90;;;;;;5089997;28;20072;-59
2023/12/22 03:04:53;;;;;;;37.22;15.82;;;17.80;99.90;;;;;;5086430;28;20124;-61
2023/12/22 03:07:19;;;;;;;38.88;15.43;;;17.80;99.90;;;;;;5088068;28;20072;-60
2023/12/22 03:09:46;;;;;;;29.80;13.70;;;17.80;99.90;;;;;;5089894;28;20137;-57
2023/12/22 03:12:12;;;;;;;33.78;14.40;;;17.80;99.90;;;;;;5089484;28;20076;-60
2023/12/22 03:14:39;;;;;;;44.60;26.65;;;17.80;99.90;;;;;;5087915;28;20087;-65
2023/12/22 03:17:06;;;;;;;37.88;25.63;;;17.80;99.90;;;;;;5088248;28;20729;-61
2023/12/22 03:19:33;;;;;;;41.63;25.38;;;17.80;99.90;;;;;;5088123;28;20076;-61
2023/12/22 03:22:00;;;;;;;37.65;25.33;;;17.80;99.90;;;;;;5089020;28;20074;-62
2023/12/22 03:24:28;;;;;;;20.10;12.25;;;17.80;99.90;;;;;;5088208;28;20120;-61
2023/12/22 03:26:55;;;;;;;30.05;14.05;;;17.70;99.90;;;;;;5091812;28;20073;-60
2023/12/22 03:29:22;;;;;;;23.67;13.27;;;17.70;99.90;;;;;;5089582;28;20210;-63
2023/12/22 03:31:48;;;;;;;29.33;14.05;;;17.70;99.90;;;;;;5088306;28;20068;-60
2023/12/22 03:34:15;;;;;;;27.63;14.40;;;17.70;99.90;;;;;;5087784;28;20531;-60
2023/12/22 03:36:41;;;;;;;25.90;16.38;;;17.60;99.90;;;;;;5087094;28;20088;-60
2023/12/22 03:39:08;;;;;;;35.95;18.15;;;17.60;99.90;;;;;;5088988;28;20072;-60
2023/12/22 03:41:34;;;;;;;27.77;16.02;;;17.60;99.90;;;;;;5087445;28;20151;-60
2023/12/22 03:44:01;;;;;;;27.00;17.13;;;17.60;99.90;;;;;;5087322;28;20096;-61
2023/12/22 03:46:27;;;;;;;29.08;18.42;;;17.60;99.90;;;;;;5087840;28;20517;-63
2023/12/22 03:48:54;;;;;;;29.25;19.38;;;17.50;99.90;;;;;;5088677;28;20290;-60
2023/12/22 03:51:20;;;;;;;31.23;19.58;;;17.50;99.90;;;;;;5087800;28;20411;-61
2023/12/22 03:53:47;;;;;;;26.13;18.60;;;17.50;99.90;;;;;;5084236;28;20563;-61
2023/12/22 03:56:13;;;;;;;31.35;20.38;;;17.50;99.90;;;;;;5087900;28;20080;-60
2023/12/22 03:58:39;;;;;;;27.67;20.08;;;17.50;99.90;;;;;;5085755;28;20076;-61
2023/12/22 04:01:09;;;;;;;29.33;20.73;;;17.50;99.90;;;;;;5088999;28;20118;-59
2023/12/22 04:03:35;;;;;;;33.15;21.33;;;17.40;99.90;;;;;;5086999;28;20083;-62
2023/12/22 04:06:04;;;;;;;26.35;19.98;;;17.40;99.90;;;;;;5092903;28;20077;-63
2023/12/22 04:08:30;;;;;;;35.03;23.40;;;17.40;99.90;;;;;;5093027;28;20076;-59
2023/12/22 04:10:57;;;;;;;33.97;23.50;;;17.30;99.90;;;;;;5086438;28;20065;-59
2023/12/22 04:13:24;;;;;;;36.85;22.50;;;17.30;99.90;;;;;;5087788;28;20069;-59
2023/12/22 04:15:50;;;;;;;35.67;22.77;;;17.30;99.90;;;;;;5088062;28;20171;-60
2023/12/22 04:18:17;;;;;;;38.65;21.45;;;17.30;99.90;;;;;;5085941;28;20069;-60
2023/12/22 04:20:43;;;;;;;31.77;22.23;;;17.30;99.90;;;;;;5086991;28;20077;-59
2023/12/22 04:23:10;;;;;;;31.30;21.60;;;17.30;99.90;;;;;;5088665;28;20509;-59
2023/12/22 04:25:37;;;;;;;29.67;20.55;;;17.30;99.90;;;;;;5084569;28;20161;-60
2023/12/22 04:28:03;;;;;;;28.33;21.80;;;17.30;99.90;;;;;;5087145;28;20075;-63
2023/12/22 04:30:30;;;;;;;31.77;20.85;;;17.20;99.90;;;;;;5086082;28;20549;-59
2023/12/22 04:32:56;;;;;;;35.33;20.65;;;17.20;99.90;;;;;;5088244;28;20190;-60
2023/12/22 04:35:23;;;;;;;34.85;20.95;;;17.20;99.90;;;;;;5085366;28;20139;-60
2023/12/22 04:37:49;;;;;;;27.23;20.17;;;17.20;99.90;;;;;;5085220;28;20138;-60
2023/12/22 04:40:16;;;;;;;29.48;21.33;;;17.20;99.90;;;;;;5090162;28;20161;-61
2023/12/22 04:42:42;;;;;;;31.58;21.15;;;17.20;99.90;;;;;;5085817;28;20076;-59
2023/12/22 04:45:09;;;;;;;35.67;22.17;;;17.30;99.90;;;;;;5084920;28;20100;-60
2023/12/22 04:47:36;;;;;;;30.88;22.00;;;17.30;99.90;;;;;;5087027;28;20159;-60
2023/12/22 04:50:02;;;;;;;31.98;21.13;;;17.30;99.90;;;;;;5086128;28;20080;-60
2023/12/22 04:52:29;;;;;;;34.55;21.63;;;17.30;99.90;;;;;;5086573;28;20465;-61
2023/12/22 04:54:56;;;;;;;24.30;20.92;;;17.20;99.90;;;;;;5084669;28;20130;-60
2023/12/22 04:57:22;;;;;;;27.83;18.73;;;17.20;99.90;;;;;;5087303;28;20065;-61
2023/12/22 04:59:49;;;;;;;25.02;19.15;;;17.10;99.90;;;;;;5085618;28;20085;-60
2023/12/22 05:02:15;;;;;;;24.80;19.42;;;17.20;99.90;;;;;;5097408;27;20508;-61
2023/12/22 05:04:42;;;;;;;27.38;20.00;;;17.10;99.90;;;;;;5084428;28;20112;-60
2023/12/22 05:07:10;;;;;;;26.50;19.70;;;17.10;99.90;;;;;;5093464;28;20155;-60
2023/12/22 05:09:37;;;;;;;26.25;18.73;;;17.10;99.90;;;;;;5088971;28;20072;-60
2023/12/22 05:12:03;;;;;;;25.05;18.90;;;17.00;99.90;;;;;;5085606;28;20073;-65
2023/12/22 05:14:30;;;;;;;22.80;17.85;;;17.00;99.90;;;;;;5084718;28;20489;-59
2023/12/22 05:16:56;;;;;;;25.55;16.60;;;17.00;99.90;;;;;;5096405;28;20179;-61
2023/12/22 05:19:23;;;;;;;27.15;19.45;;;16.90;99.90;;;;;;5083389;28;20091;-60
2023/12/22 05:21:52;;;;;;;30.60;19.63;;;17.00;99.90;;;;;;5086936;28;20073;-60
2023/12/22 05:24:19;;;;;;;42.85;23.92;;;17.00;99.90;;;;;;5084592;28;20162;-62
2023/12/22 05:26:45;;;;;;;33.67;24.67;;;16.90;99.90;;;;;;5085054;28;20098;-60
2023/12/22 05:29:12;;;;;;;38.83;25.27;;;17.00;99.90;;;;;;5094041;28;20073;-60
2023/12/22 05:31:39;;;;;;;33.20;24.45;;;16.90;99.90;;;;;;5083579;28;20109;-60
2023/12/22 05:34:06;;;;;;;32.03;23.75;;;16.90;99.90;;;;;;5084053;28;20104;-60
2023/12/22 05:36:33;;;;;;;29.48;19.38;;;16.90;99.90;;;;;;5080433;28;20073;-60
2023/12/22 05:38:59;;;;;;;25.20;17.98;;;16.90;99.90;;;;;;5086318;28;20100;-59
2023/12/22 05:41:26;;;;;;;31.63;19.23;;;16.90;99.90;;;;;;5085596;28;20072;-60
2023/12/22 05:43:52;;;;;;;24.98;16.70;;;16.90;99.90;;;;;;5086140;28;20122;-59
2023/12/22 05:46:19;;;;;;;22.92;16.15;;;16.90;99.90;;;;;;5092681;28;20495;-60
2023/12/22 05:48:45;;;;;;;26.88;17.70;;;17.00;99.90;;;;;;5090463;28;20075;-64
2023/12/22 05:51:13;;;;;;;25.23;17.65;;;16.90;99.90;;;;;;5089968;28;20511;-61
2023/12/22 05:53:40;;;;;;;24.45;19.85;;;17.00;99.90;;;;;;5097701;28;20172;-59
2023/12/22 05:56:27;;;;;;;22.98;16.73;;;16.90;99.90;;;;;;5092413;28;20184;-59
2023/12/22 05:58:54;;;;;;;25.08;17.25;;;16.90;99.90;;;;;;5089434;28;20090;-64
2023/12/22 06:01:21;;;;;;;30.85;18.08;;;16.90;99.90;;;;;;5088383;28;20081;-61
2023/12/22 06:03:48;;;;;;;23.05;18.40;;;16.90;99.90;;;;;;5091766;28;20087;-61
2023/12/22 06:06:14;;;;;;;30.50;21.40;;;16.90;99.90;;;;;;5093151;28;20083;-63
2023/12/22 06:08:41;;;;;;;29.83;20.58;;;16.90;99.90;;;;;;5089721;28;20129;-60
2023/12/22 06:11:07;;;;;;;30.85;22.27;;;16.90;99.90;;;;;;5089867;28;20096;-62
2023/12/22 06:13:34;;;;;;;33.30;24.35;;;16.90;99.90;;;;;;5089592;28;20152;-60
2023/12/22 06:16:01;;;;;;;36.97;25.55;;;16.80;99.90;;;;;;5089832;28;20122;-59
2023/12/22 06:18:27;;;;;;;32.38;22.95;;;16.90;99.90;;;;;;5087881;28;20492;-60
2023/12/22 06:20:54;;;;;;;30.55;20.25;;;16.90;99.90;;;;;;5088474;28;20069;-65
2023/12/22 06:23:20;;;;;;;30.67;20.98;;;16.90;99.90;;;;;;5097378;28;20076;-61
2023/12/22 06:25:48;;;;;;;33.55;20.38;;;16.80;99.90;;;;;;5092264;28;20177;-60
2023/12/22 06:28:16;;;;;;;30.88;19.95;;;16.90;99.90;;;;;;5089398;28;20151;-61
2023/12/22 06:30:44;;;;;;;33.35;21.63;;;16.90;99.90;;;;;;5095527;28;20858;-61
2023/12/22 06:33:11;;;;;;;26.95;20.17;;;16.90;99.90;;;;;;5085508;28;20171;-59
2023/12/22 06:35:40;;;;;;;30.50;20.60;;;16.90;99.90;;;;;;5088630;28;20081;-60
2023/12/22 06:38:07;;;;;;;32.53;26.20;;;16.90;99.90;;;;;;5087600;28;20535;-59
2023/12/22 06:40:35;;;;;;;32.47;22.13;;;16.90;99.90;;;;;;5093628;28;20134;-65
2023/12/22 06:43:02;;;;;;;31.88;23.80;;;16.80;99.90;;;;;;5089621;28;20450;-60
2023/12/22 06:45:28;;;;;;;35.45;24.17;;;16.80;99.90;;;;;;5087689;28;21037;-60
2023/12/22 06:47:55;;;;;;;33.40;23.90;;;16.80;99.90;;;;;;5084205;28;20091;-60
2023/12/22 06:50:21;;;;;;;36.50;25.05;;;16.90;99.90;;;;;;5087852;28;20077;-59
2023/12/22 06:52:49;;;;;;;52.28;36.47;;;16.80;99.90;;;;;;5088736;28;20126;-63
2023/12/22 06:55:16;;;;;;;39.60;26.58;;;16.70;99.90;;;;;;5089696;28;20458;-61
2023/12/22 06:57:43;;;;;;;42.58;29.85;;;16.70;99.90;;;;;;5087459;28;20144;-60
2023/12/22 07:00:10;;;;;;;46.75;30.30;;;16.80;99.90;;;;;;5087109;28;20458;-60
2023/12/22 07:02:37;;;;;;;38.55;29.50;;;16.80;99.90;;;;;;5087562;28;20064;-62
2023/12/22 07:05:25;;;;;;;42.20;30.27;;;16.70;99.90;;;;;;5090348;28;20110;-66
2023/12/22 07:07:51;;;;;;;42.80;30.45;;;16.70;99.90;;;;;;5086911;28;20530;-60
2023/12/22 07:10:18;;;;;;;42.10;31.13;;;16.80;99.90;;;;;;5088103;28;20092;-60
2023/12/22 07:12:44;;;;;;;41.35;29.38;;;16.70;99.90;;;;;;5089411;28;20113;-60
2023/12/22 07:15:10;;;;;;;43.38;29.88;;;16.70;99.90;;;;;;5089535;28;20131;-62
2023/12/22 07:17:37;;;;;;;39.47;28.17;;;16.70;99.90;;;;;;5087894;28;20081;-60
2023/12/22 07:20:04;;;;;;;30.45;20.85;;;16.60;99.90;;;;;;5088377;28;20088;-60
2023/12/22 07:22:31;;;;;;;38.70;23.13;;;16.60;99.90;;;;;;5090665;27;20069;-61
2023/12/22 07:24:57;;;;;;;28.90;20.48;;;16.60;99.90;;;;;;5089824;28;20116;-60
2023/12/22 07:27:24;;;;;;;32.90;22.27;;;16.60;99.90;;;;;;5088033;28;20438;-65
2023/12/22 07:29:50;;;;;;;35.55;23.05;;;16.60;99.90;;;;;;5088270;28;20076;-62
2023/12/22 07:32:17;;;;;;;32.83;21.77;;;16.60;99.90;;;;;;5088883;28;20072;-61
2023/12/22 07:34:43;;;;;;;35.08;20.35;;;16.70;99.90;;;;;;5087560;28;20068;-59
2023/12/22 07:37:10;;;;;;;36.80;20.00;;;16.60;99.90;;;;;;5088540;28;20088;-62
2023/12/22 07:39:36;;;;;;;30.50;19.10;;;16.60;99.90;;;;;;5090735;28;20744;-60
2023/12/22 07:42:03;;;;;;;25.60;17.27;;;16.60;99.90;;;;;;5087423;28;20123;-60
2023/12/22 07:44:29;;;;;;;27.15;16.73;;;16.50;99.90;;;;;;5089688;28;20092;-60
2023/12/22 07:46:59;;;;;;;27.85;16.25;;;16.50;99.90;;;;;;5089387;28;20073;-60
2023/12/22 07:49:27;;;;;;;24.05;15.40;;;16.40;99.90;;;;;;5089207;28;20530;-59
2023/12/22 07:51:53;;;;;;;25.65;15.20;;;16.40;99.90;;;;;;5089224;28;20080;-65
2023/12/22 07:54:20;;;;;;;18.98;14.43;;;16.40;99.90;;;;;;5088907;28;20072;-60
2023/12/22 07:56:47;;;;;;;26.90;16.63;;;16.40;99.90;;;;;;5087734;28;20084;-59
2023/12/22 07:59:13;;;;;;;25.08;16.23;;;16.40;99.90;;;;;;5085133;28;20540;-60
2023/12/22 08:01:40;;;;;;;30.27;16.48;;;16.40;99.90;;;;;;5087902;28;20209;-64
2023/12/22 08:04:07;;;;;;;25.67;15.45;;;16.40;99.90;;;;;;5086560;28;20124;-62
2023/12/22 08:06:33;;;;;;;24.08;16.73;;;16.40;99.90;;;;;;5088254;28;20073;-61
2023/12/22 08:09:00;;;;;;;24.10;15.88;;;16.40;99.90;;;;;;5087795;28;20438;-60
2023/12/22 08:11:26;;;;;;;23.25;15.95;;;16.40;99.90;;;;;;5087008;28;20072;-60
2023/12/22 08:13:53;;;;;;;20.98;14.93;;;16.40;99.90;;;;;;5089041;28;20159;-60
2023/12/22 08:16:20;;;;;;;20.83;14.63;;;16.30;99.90;;;;;;5086350;28;20072;-61
2023/12/22 08:18:46;;;;;;;19.58;13.90;;;16.40;99.90;;;;;;5088753;28;20080;-61
2023/12/22 08:21:15;;;;;;;22.90;14.65;;;16.40;99.90;;;;;;5083584;28;20103;-60
2023/12/22 08:23:41;;;;;;;22.05;14.32;;;16.50;99.90;;;;;;5088728;28;20476;-60
2023/12/22 08:26:08;;;;;;;22.25;14.45;;;16.40;99.90;;;;;;5087092;28;20143;-59
2023/12/22 08:28:35;;;;;;;20.15;15.60;;;16.50;99.90;;;;;;5089852;28;20084;-59
2023/12/22 08:31:02;;;;;;;23.20;15.13;;;16.50;99.90;;;;;;5091681;28;20156;-61
2023/12/22 08:33:29;;;;;;;25.65;15.23;;;16.50;99.90;;;;;;5088414;28;20119;-61
2023/12/22 08:35:55;;;;;;;27.40;15.38;;;16.50;99.90;;;;;;5087143;28;20073;-63
2023/12/22 08:38:21;;;;;;;23.23;16.52;;;16.50;99.90;;;;;;5086246;28;20076;-61
2023/12/22 08:40:48;;;;;;;28.88;17.38;;;16.50;99.90;;;;;;5087677;28;20083;-60
2023/12/22 08:43:15;;;;;;;24.48;15.27;;;16.50;99.90;;;;;;5086352;28;20072;-62
2023/12/22 08:45:41;;;;;;;27.77;16.15;;;16.50;99.90;;;;;;5088012;28;20100;-62
2023/12/22 08:48:08;;;;;;;26.50;16.65;;;16.50;99.90;;;;;;5092580;28;20493;-61
2023/12/22 08:50:35;;;;;;;25.35;17.05;;;16.50;99.90;;;;;;5088165;28;20099;-64
2023/12/22 08:53:02;;;;;;;35.08;23.15;;;16.50;99.90;;;;;;5085929;28;20423;-61
2023/12/22 08:55:28;;;;;;;26.65;19.75;;;16.50;99.90;;;;;;5086159;28;20073;-59
2023/12/22 08:57:55;;;;;;;25.80;18.73;;;16.50;99.90;;;;;;5085887;28;20069;-59
2023/12/22 09:00:21;;;;;;;33.03;21.17;;;16.50;99.90;;;;;;5086823;28;20540;-60
2023/12/22 09:02:47;;;;;;;29.45;20.08;;;16.50;99.90;;;;;;5087048;28;20114;-60
2023/12/22 09:05:14;;;;;;;25.83;18.65;;;16.50;99.90;;;;;;5084820;28;20115;-59
2023/12/22 09:07:40;;;;;;;24.13;14.48;;;16.50;99.90;;;;;;5087066;28;20065;-59
2023/12/22 09:10:07;;;;;;;18.05;11.68;;;16.50;99.90;;;;;;5086063;28;20084;-59
2023/12/22 09:12:34;;;;;;;15.75;10.48;;;16.50;99.90;;;;;;5087432;28;20154;-60
2023/12/22 09:15:00;;;;;;;16.90;10.77;;;16.50;99.90;;;;;;5083723;28;20559;-61
2023/12/22 09:17:28;;;;;;;20.65;11.73;;;16.50;99.90;;;;;;5085226;28;20530;-59
2023/12/22 09:19:55;;;;;;;16.17;10.90;;;16.60;99.90;;;;;;5086871;28;20098;-63
2023/12/22 09:22:21;;;;;;;15.57;10.80;;;16.60;99.90;;;;;;5086125;28;20118;-63
2023/12/22 09:24:48;;;;;;;19.63;11.70;;;16.60;99.90;;;;;;5087253;28;20136;-60
2023/12/22 09:27:15;;;;;;;20.70;11.40;;;16.70;99.90;;;;;;5086418;28;20590;-59
2023/12/22 09:29:42;;;;;;;17.42;9.98;;;16.70;99.90;;;;;;5086030;28;20175;-59
2023/12/22 09:32:08;;;;;;;17.63;10.27;;;16.70;99.90;;;;;;5086560;28;20076;-59
2023/12/22 09:34:35;;;;;;;15.50;10.98;;;16.70;99.90;;;;;;5086133;28;20068;-64
2023/12/22 09:37:01;;;;;;;16.38;11.95;;;16.80;99.90;;;;;;5088458;28;20155;-59
2023/12/22 09:39:28;;;;;;;19.30;13.68;;;16.80;99.90;;;;;;5086184;28;20171;-60
2023/12/22 09:41:55;;;;;;;34.35;24.17;;;16.90;99.90;;;;;;5085867;28;20454;-60
2023/12/22 09:44:22;;;;;;;21.13;14.48;;;16.90;99.90;;;;;;5085012;28;20100;-62
2023/12/22 09:46:50;;;;;;;23.27;12.93;;;16.80;99.90;;;;;;5087148;28;20077;-60
2023/12/22 09:49:21;;;;;;;15.55;9.63;;;16.90;99.90;;;;;;5085420;28;20081;-59
2023/12/22 09:51:49;;;;;;;15.63;7.65;;;16.90;99.90;;;;;;5085253;28;20503;-60
2023/12/22 09:54:16;;;;;;;16.05;8.63;;;16.90;99.90;;;;;;5084745;28;20072;-60
2023/12/22 09:56:44;;;;;;;19.63;8.57;;;16.80;99.90;;;;;;5087537;28;20107;-60
2023/12/22 09:59:13;;;;;;;17.08;8.23;;;16.90;99.90;;;;;;5086164;28;21167;-59
2023/12/22 10:01:51;;;;;;;16.52;7.75;;;16.80;99.90;;;;;;5087169;28;20719;-59
2023/12/22 10:04:17;;;;;;;20.33;9.38;;;16.80;99.90;;;;;;5086228;28;20436;-59
2023/12/22 10:06:46;;;;;;;16.77;9.18;;;16.80;99.90;;;;;;5086672;28;20072;-59
2023/12/22 10:09:15;;;;;;;15.77;8.95;;;16.90;99.90;;;;;;5085843;28;20163;-59
2023/12/22 10:11:43;;;;;;;18.77;9.43;;;16.80;99.90;;;;;;5091122;28;20159;-59
2023/12/22 10:14:10;;;;;;;18.20;8.95;;;16.80;99.90;;;;;;5085819;28;20065;-58
2023/12/22 10:16:37;;;;;;;16.85;7.28;;;16.80;99.90;;;;;;5087116;28;20156;-59
2023/12/22 10:19:05;;;;;;;16.38;5.70;;;16.90;99.90;;;;;;5086562;28;20084;-59
2023/12/22 10:21:32;;;;;;;11.18;5.22;;;16.90;99.90;;;;;;5084453;28;20073;-61
2023/12/22 10:23:58;;;;;;;16.75;4.88;;;16.80;99.90;;;;;;5086000;28;20097;-60
2023/12/22 10:26:25;;;;;;;8.05;4.88;;;16.80;99.90;;;;;;5087295;28;20199;-60
2023/12/22 10:28:52;;;;;;;17.10;5.82;;;16.80;99.90;;;;;;5085770;28;20474;-59
2023/12/22 10:31:19;;;;;;;14.65;5.50;;;16.80;99.90;;;;;;5087001;28;20172;-60
2023/12/22 10:33:45;;;;;;;9.23;5.78;;;16.90;99.90;;;;;;5089243;28;20114;-62
2023/12/22 10:36:12;;;;;;;12.95;5.63;;;16.90;99.90;;;;;;5095124;28;20518;-60
2023/12/22 10:38:39;;;;;;;13.57;5.18;;;16.90;99.90;;;;;;5092103;28;20076;-61
2023/12/22 10:41:09;;;;;;;15.50;5.63;;;16.90;99.90;;;;;;5090020;28;20086;-59
2023/12/22 10:43:41;;;;;;;16.40;4.90;;;16.80;99.90;;;;;;5089674;28;20073;-59
2023/12/22 10:46:10;;;;;;;13.57;6.45;;;16.80;99.90;;;;;;5088876;28;20111;-58
2023/12/22 10:48:37;;;;;;;15.10;6.10;;;16.80;99.90;;;;;;5089142;28;20445;-60
2023/12/22 10:51:08;;;;;;;15.88;5.07;;;16.60;99.90;;;;;;5088841;28;20092;-59
2023/12/22 10:53:35;;;;;;;20.60;5.30;;;16.60;99.90;;;;;;5086965;28;20076;-59
2023/12/22 10:56:01;;;;;;;25.88;17.20;;;16.50;99.90;;;;;;5086888;28;20198;-60
2023/12/22 10:58:29;;;;;;;12.13;4.63;;;16.50;99.90;;;;;;5089321;28;20077;-59
2023/12/22 11:00:56;;;;;;;16.80;5.40;;;16.50;99.90;;;;;;5088797;28;20542;-59
2023/12/22 11:03:26;;;;;;;13.60;5.95;;;16.40;99.90;;;;;;5089542;28;20090;-58
2023/12/22 11:05:58;;;;;;;16.10;4.72;;;16.30;99.90;;;;;;5087512;28;20153;-57
2023/12/22 11:08:29;;;;;;;19.83;5.43;;;16.30;99.90;;;;;;5092649;28;20075;-59
2023/12/22 11:10:59;;;;;;;19.85;6.05;;;16.20;99.90;;;;;;5089803;28;20080;-59
2023/12/22 11:13:25;;;;;;;14.32;4.90;;;16.30;99.90;;;;;;5091024;28;20444;-59
2023/12/22 11:15:53;;;;;;;9.98;3.80;;;16.20;99.90;;;;;;5092618;28;20549;-60
2023/12/22 11:18:21;;;;;;;16.92;4.30;;;16.20;99.90;;;;;;5089896;28;20139;-59
2023/12/22 11:20:48;;;;;;;15.07;4.25;;;16.20;99.90;;;;;;5088589;28;20596;-58
2023/12/22 11:23:16;;;;;;;16.75;5.07;;;16.20;99.90;;;;;;5089210;28;20068;-59
2023/12/22 11:25:44;;;;;;;17.85;5.30;;;16.20;99.90;;;;;;5088057;28;20211;-59
2023/12/22 11:28:14;;;;;;;15.40;5.05;;;16.20;99.90;;;;;;5088032;28;20076;-59
2023/12/22 11:30:40;;;;;;;18.15;6.70;;;16.20;99.90;;;;;;5085348;28;20145;-60
2023/12/22 11:33:10;;;;;;;24.90;9.25;;;16.30;99.90;;;;;;5087395;28;20085;-59
2023/12/22 11:35:38;;;;;;;21.90;7.90;;;16.20;99.90;;;;;;5087670;28;20083;-60
2023/12/22 11:38:05;;;;;;;16.77;6.75;;;16.20;99.90;;;;;;5091369;28;20065;-59
2023/12/22 11:40:32;;;;;;;19.23;6.43;;;16.20;99.90;;;;;;5088358;28;20072;-60
2023/12/22 11:43:00;;;;;;;25.13;7.25;;;16.20;99.90;;;;;;5094122;28;20081;-64
2023/12/22 11:45:31;;;;;;;23.58;7.35;;;16.20;99.90;;;;;;5087935;28;20115;-59
2023/12/22 11:48:06;;;;;;;15.23;5.65;;;16.20;99.90;;;;;;5087145;28;20072;-59
2023/12/22 11:50:33;;;;;;;16.90;5.35;;;16.20;99.90;;;;;;5086749;28;21598;-60
2023/12/22 11:53:20;;;;;;;16.00;4.93;;;16.20;99.90;;;;;;5085936;28;20092;-59
2023/12/22 11:55:58;;;;;;;16.75;4.88;;;16.20;99.90;;;;;;5087070;28;20077;-60
2023/12/22 11:58:40;;;;;;;17.75;4.88;;;16.20;99.90;;;;;;5101364;28;20080;-59
2023/12/22 12:01:11;;;;;;;16.30;4.13;;;16.20;99.90;;;;;;5087155;28;20337;-62
2023/12/22 12:03:42;;;;;;;17.05;4.40;;;16.20;99.90;;;;;;5087013;28;20073;-60
2023/12/22 12:06:18;;;;;;;12.93;3.67;;;16.20;99.90;;;;;;5086086;28;20116;-60
2023/12/22 12:08:45;;;;;;;14.82;3.65;;;16.20;99.90;;;;;;5088676;28;20080;-60
2023/12/22 12:11:12;;;;;;;15.48;4.80;;;16.20;99.90;;;;;;5086988;28;20077;-61
2023/12/22 12:13:44;;;;;;;16.45;5.40;;;16.30;99.90;;;;;;5087699;28;20077;-59
2023/12/22 12:16:24;;;;;;;15.70;5.85;;;16.30;99.90;;;;;;5086773;28;20119;-60
2023/12/22 12:18:54;;;;;;;22.25;7.32;;;16.30;99.90;;;;;;5086495;28;20072;-58
2023/12/22 12:21:20;;;;;;;19.88;6.97;;;16.30;99.90;;;;;;5088009;28;20068;-59
2023/12/22 12:23:48;;;;;;;16.60;5.70;;;16.30;99.90;;;;;;5084677;28;20119;-60
2023/12/22 12:26:16;;;;;;;16.80;5.75;;;16.30;99.90;;;;;;5088487;28;20120;-60
2023/12/22 12:28:47;;;;;;;19.08;7.75;;;16.30;99.90;;;;;;5091067;28;20083;-60
2023/12/22 12:31:13;;;;;;;17.48;6.50;;;16.40;99.90;;;;;;5086120;28;20087;-60
2023/12/22 12:33:40;;;;;;;12.95;3.22;;;16.40;99.90;;;;;;5086259;28;20083;-61